createdAt,value
2022-10-04T00:00:04.856Z,1009.6
2022-10-04T00:02:04.931Z,1009.7
2022-10-04T00:04:04.855Z,1009.7
2022-10-04T00:07:04.826Z,1009.6
2022-10-04T00:09:04.841Z,1009.7
2022-10-04T00:12:04.897Z,1009.7
2022-10-04T00:15:04.818Z,1009.7
2022-10-04T00:17:05.970Z,1009.7
2022-10-04T00:20:04.833Z,1009.6
2022-10-04T00:22:04.858Z,1009.7
2022-10-04T00:25:04.847Z,1009.7
2022-10-04T00:28:04.872Z,1009.7
2022-10-04T00:30:04.870Z,1009.7
2022-10-04T00:33:04.855Z,1009.7
2022-10-04T00:36:04.827Z,1009.7
2022-10-04T00:38:04.835Z,1009.7
2022-10-04T00:40:06.550Z,1009.7
2022-10-04T00:43:04.831Z,1009.7
2022-10-04T00:45:04.843Z,1009.6
2022-10-04T00:48:04.823Z,1009.7
2022-10-04T00:50:04.866Z,1009.6
2022-10-04T00:52:04.844Z,1009.6
2022-10-04T00:54:05.869Z,1009.6
2022-10-04T00:57:04.844Z,1009.6
2022-10-04T00:59:04.855Z,1009.6
2022-10-04T01:02:04.973Z,1009.6
2022-10-04T01:05:04.841Z,1009.5
2022-10-04T01:08:04.860Z,1009.5
2022-10-04T01:11:04.840Z,1009.5
2022-10-04T01:14:04.880Z,1009.5
2022-10-04T01:17:04.846Z,1009.5
2022-10-04T01:19:04.853Z,1009.5
2022-10-04T01:22:04.849Z,1009.5
2022-10-04T01:25:04.852Z,1009.4
2022-10-04T01:28:04.877Z,1009.4
2022-10-04T01:30:04.856Z,1009.3
2022-10-04T01:32:04.838Z,1009.3
2022-10-04T01:35:04.855Z,1009.2
2022-10-04T01:37:04.820Z,1009.2
2022-10-04T01:39:04.847Z,1009.2
2022-10-04T01:41:04.871Z,1009.1
2022-10-04T01:44:04.830Z,1009.1
2022-10-04T01:46:04.897Z,1009.1
2022-10-04T01:48:04.860Z,1009.1
2022-10-04T01:51:04.855Z,1009.1
2022-10-04T01:53:04.849Z,1009.1
2022-10-04T01:56:04.834Z,1009
2022-10-04T01:58:04.834Z,1009
2022-10-04T02:02:04.841Z,1009.1
2022-10-04T02:05:04.932Z,1009.1
2022-10-04T02:08:04.835Z,1009.1
2022-10-04T02:11:04.864Z,1009
2022-10-04T02:14:04.859Z,1009
2022-10-04T02:16:04.927Z,1009
2022-10-04T02:19:04.843Z,1008.9
2022-10-04T02:21:04.891Z,1008.9
2022-10-04T02:24:04.842Z,1008.9
2022-10-04T02:27:04.832Z,1008.8
2022-10-04T02:29:04.892Z,1008.8
2022-10-04T02:32:04.853Z,1008.8
2022-10-04T02:35:04.858Z,1008.7
2022-10-04T02:38:04.855Z,1008.7
2022-10-04T02:41:04.867Z,1008.7
2022-10-04T02:44:04.861Z,1008.6
2022-10-04T02:47:04.840Z,1008.6
2022-10-04T02:49:04.853Z,1008.6
2022-10-04T02:52:04.852Z,1008.5
2022-10-04T02:54:04.848Z,1008.6
2022-10-04T02:57:04.896Z,1008.6
2022-10-04T03:00:04.867Z,1008.5
2022-10-04T03:03:04.855Z,1008.5
2022-10-04T03:05:04.853Z,1008.5
2022-10-04T03:07:04.855Z,1008.5
2022-10-04T03:09:04.897Z,1008.5
2022-10-04T03:12:04.869Z,1008.5
2022-10-04T03:14:04.877Z,1008.5
2022-10-04T03:17:04.862Z,1008.4
2022-10-04T03:20:04.855Z,1008.4
2022-10-04T03:22:04.846Z,1008.4
2022-10-04T03:24:04.854Z,1008.4
2022-10-04T03:26:04.910Z,1008.4
2022-10-04T03:28:04.920Z,1008.4
2022-10-04T03:31:04.901Z,1008.3
2022-10-04T03:33:04.839Z,1008.3
2022-10-04T03:36:04.857Z,1008.3
2022-10-04T03:38:04.848Z,1008.3
2022-10-04T03:41:04.860Z,1008.4
2022-10-04T03:44:05.225Z,1008.4
2022-10-04T03:46:04.991Z,1008.4
2022-10-04T03:49:04.863Z,1008.4
2022-10-04T03:52:04.855Z,1008.4
2022-10-04T03:54:04.858Z,1008.5
2022-10-04T03:56:04.860Z,1008.5
2022-10-04T03:59:04.856Z,1008.5
2022-10-04T04:01:04.887Z,1008.5
2022-10-04T04:04:04.875Z,1008.5
2022-10-04T04:07:04.863Z,1008.5
2022-10-04T04:10:04.871Z,1008.5
2022-10-04T04:13:04.847Z,1008.5
2022-10-04T04:16:04.874Z,1008.6
2022-10-04T04:18:04.902Z,1008.6
2022-10-04T04:21:04.932Z,1008.6
2022-10-04T04:23:04.939Z,1008.7
2022-10-04T04:26:04.874Z,1008.7
2022-10-04T04:29:04.891Z,1008.7
2022-10-04T04:32:04.917Z,1008.7
2022-10-04T04:34:04.868Z,1008.7
2022-10-04T04:37:04.903Z,1008.7
2022-10-04T04:40:04.870Z,1008.6
2022-10-04T04:42:04.870Z,1008.6
2022-10-04T04:45:04.884Z,1008.6
2022-10-04T04:47:04.854Z,1008.6
2022-10-04T04:49:04.868Z,1008.6
2022-10-04T04:52:04.874Z,1008.5
2022-10-04T04:54:04.874Z,1008.5
2022-10-04T04:56:05.257Z,1008.5
2022-10-04T04:58:04.919Z,1008.6
2022-10-04T05:01:04.940Z,1008.6
2022-10-04T05:04:04.854Z,1008.6
2022-10-04T05:07:04.896Z,1008.7
2022-10-04T05:09:04.871Z,1008.7
2022-10-04T05:12:04.857Z,1008.7
2022-10-04T05:15:04.834Z,1008.7
2022-10-04T05:18:04.849Z,1008.7
2022-10-04T05:20:04.899Z,1008.7
2022-10-04T05:23:04.890Z,1008.7
2022-10-04T05:25:04.896Z,1008.6
2022-10-04T05:28:04.989Z,1008.6
2022-10-04T05:31:04.868Z,1008.5
2022-10-04T05:33:04.929Z,1008.5
2022-10-04T05:36:04.848Z,1008.5
2022-10-04T05:39:04.882Z,1008.4
2022-10-04T05:41:04.925Z,1008.5
2022-10-04T05:44:04.879Z,1008.5
2022-10-04T05:46:04.923Z,1008.5
2022-10-04T05:49:04.899Z,1008.4
2022-10-04T05:52:04.867Z,1008.4
2022-10-04T05:54:04.939Z,1008.4
2022-10-04T05:57:04.872Z,1008.4
2022-10-04T05:59:04.881Z,1008.4
2022-10-04T06:02:04.960Z,1008.5
2022-10-04T06:05:04.855Z,1008.4
2022-10-04T06:07:04.898Z,1008.5
2022-10-04T06:10:04.910Z,1008.4
2022-10-04T06:13:04.875Z,1008.5
2022-10-04T06:15:04.899Z,1008.5
2022-10-04T06:18:04.905Z,1008.5
2022-10-04T06:21:04.871Z,1008.6
2022-10-04T06:23:04.899Z,1008.6
2022-10-04T06:26:04.926Z,1008.6
2022-10-04T06:29:04.863Z,1008.6
2022-10-04T06:31:05.003Z,1008.6
2022-10-04T06:34:05.078Z,1008.6
2022-10-04T06:37:04.870Z,1008.7
2022-10-04T06:39:04.872Z,1008.7
2022-10-04T06:41:04.884Z,1008.7
2022-10-04T06:43:04.886Z,1008.7
2022-10-04T06:46:04.936Z,1008.7
2022-10-04T06:48:04.912Z,1008.7
2022-10-04T06:50:04.896Z,1008.7
2022-10-04T06:53:04.867Z,1008.7
2022-10-04T06:55:04.867Z,1008.7
2022-10-04T06:57:04.869Z,1008.7
2022-10-04T07:00:05.007Z,1008.8
2022-10-04T07:02:04.931Z,1008.7
2022-10-04T07:05:09.058Z,1008.8
2022-10-04T07:07:04.857Z,1008.8
2022-10-04T07:09:04.877Z,1008.8
2022-10-04T07:12:04.871Z,1008.8
2022-10-04T07:14:04.948Z,1008.8
2022-10-04T07:17:04.895Z,1008.8
2022-10-04T07:19:04.893Z,1008.9
2022-10-04T07:22:04.923Z,1008.9
2022-10-04T07:24:04.912Z,1008.9
2022-10-04T07:27:04.946Z,1008.9
2022-10-04T07:30:04.893Z,1009
2022-10-04T07:33:04.921Z,1009
2022-10-04T07:35:04.930Z,1008.9
2022-10-04T07:38:04.887Z,1008.9
2022-10-04T07:41:04.868Z,1008.9
2022-10-04T07:43:04.922Z,1008.9
2022-10-04T07:46:04.956Z,1009
2022-10-04T07:49:04.920Z,1009
2022-10-04T07:51:04.909Z,1009
2022-10-04T07:54:04.908Z,1009
2022-10-04T07:57:04.881Z,1008.9
2022-10-04T07:59:04.948Z,1008.9
2022-10-04T08:02:04.914Z,1008.9
2022-10-04T08:04:04.891Z,1008.9
2022-10-04T08:07:04.883Z,1008.9
2022-10-04T08:09:04.890Z,1008.9
2022-10-04T08:12:04.911Z,1009
2022-10-04T08:14:04.867Z,1008.9
2022-10-04T08:17:04.893Z,1008.9
2022-10-04T08:19:04.917Z,1008.9
2022-10-04T08:22:04.965Z,1008.9
2022-10-04T08:25:04.895Z,1008.9
2022-10-04T08:28:04.951Z,1008.8
2022-10-04T08:30:04.953Z,1008.8
2022-10-04T08:32:05.348Z,1008.7
2022-10-04T08:35:04.887Z,1008.7
2022-10-04T08:38:04.897Z,1008.8
2022-10-04T08:41:04.906Z,1008.8
2022-10-04T08:44:04.890Z,1008.7
2022-10-04T08:46:04.919Z,1008.7
2022-10-04T08:49:04.887Z,1008.7
2022-10-04T08:51:04.914Z,1008.7
2022-10-04T08:54:04.886Z,1008.7
2022-10-04T08:56:05.043Z,1008.8
2022-10-04T08:59:04.881Z,1008.8
2022-10-04T09:02:04.886Z,1008.8
2022-10-04T09:04:04.913Z,1008.8
2022-10-04T09:07:04.883Z,1008.8
2022-10-04T09:10:04.881Z,1008.8
2022-10-04T09:12:05.032Z,1008.8
2022-10-04T09:15:05.145Z,1008.8
2022-10-04T09:18:04.895Z,1008.8
2022-10-04T09:21:04.884Z,1008.7
2022-10-04T09:23:06.468Z,1008.7
2022-10-04T09:26:04.880Z,1008.6
2022-10-04T09:29:05.273Z,1008.6
2022-10-04T09:33:05.220Z,1008.5
2022-10-04T09:36:04.903Z,1008.5
2022-10-04T09:38:05.101Z,1008.5
2022-10-04T09:41:04.897Z,1008.6
2022-10-04T09:43:04.897Z,1008.6
2022-10-04T09:46:05.011Z,1008.6
2022-10-04T09:49:04.891Z,1008.6
2022-10-04T09:51:04.916Z,1008.7
2022-10-04T09:53:04.970Z,1008.7
2022-10-04T09:56:04.880Z,1008.6
2022-10-04T09:58:04.900Z,1008.6
2022-10-04T10:00:04.944Z,1008.6
2022-10-04T10:03:04.962Z,1008.6
2022-10-04T10:06:04.903Z,1008.6
2022-10-04T10:09:04.885Z,1008.7
2022-10-04T10:11:04.923Z,1008.6
2022-10-04T10:14:04.917Z,1008.6
2022-10-04T10:16:04.961Z,1008.5
2022-10-04T10:18:04.951Z,1008.4
2022-10-04T10:21:04.893Z,1008.5
2022-10-04T10:24:04.919Z,1008.5
2022-10-04T10:26:15.178Z,1008.5
2022-10-04T10:29:15.169Z,1008.5
2022-10-04T10:32:04.924Z,1008.5
2022-10-04T10:35:04.922Z,1008.5
2022-10-04T10:37:05.006Z,1008.5
2022-10-04T10:40:04.911Z,1008.5
2022-10-04T10:42:04.925Z,1008.5
2022-10-04T10:44:04.931Z,1008.4
2022-10-04T10:47:04.930Z,1008.4
2022-10-04T10:49:04.925Z,1008.4
2022-10-04T10:51:04.959Z,1008.4
2022-10-04T10:54:05.046Z,1008.3
2022-10-04T10:57:04.911Z,1008.3
2022-10-04T10:59:04.913Z,1008.3
2022-10-04T11:03:12.993Z,1008.3
2022-10-04T11:05:04.943Z,1008.3
2022-10-04T11:08:04.909Z,1008.3
2022-10-04T11:10:04.921Z,1008.3
2022-10-04T11:13:04.943Z,1008.3
2022-10-04T11:15:04.947Z,1008.2
2022-10-04T11:18:04.959Z,1008.2
2022-10-04T11:21:04.926Z,1008.3
2022-10-04T11:23:05.012Z,1008.2
2022-10-04T11:26:04.963Z,1008.2
2022-10-04T11:29:04.892Z,1008.3
2022-10-04T11:31:04.994Z,1008.4
2022-10-04T11:34:04.948Z,1008.4
2022-10-04T11:36:04.932Z,1008.4
2022-10-04T11:38:04.944Z,1008.3
2022-10-04T11:41:04.932Z,1008.3
2022-10-04T11:43:04.934Z,1008.3
2022-10-04T11:46:08.602Z,1008.2
2022-10-04T11:48:04.956Z,1008.2
2022-10-04T11:50:04.970Z,1008.2
2022-10-04T11:52:04.955Z,1008.2
2022-10-04T11:55:04.917Z,1008.2
2022-10-04T11:57:04.961Z,1008.2
2022-10-04T11:59:04.962Z,1008.2
2022-10-04T12:02:04.933Z,1008.2
2022-10-04T12:04:05.708Z,1008.2
2022-10-04T12:07:04.962Z,1008.1
2022-10-04T12:11:04.935Z,1008
2022-10-04T12:14:04.957Z,1008
2022-10-04T12:17:04.948Z,1007.9
2022-10-04T12:19:04.920Z,1008
2022-10-04T12:22:04.946Z,1007.9
2022-10-04T12:25:04.886Z,1007.9
2022-10-04T12:27:04.950Z,1007.8
2022-10-04T12:30:05.020Z,1007.8
2022-10-04T12:33:04.901Z,1007.8
2022-10-04T12:35:04.905Z,1007.7
2022-10-04T12:37:04.923Z,1007.7
2022-10-04T12:39:04.944Z,1007.7
2022-10-04T12:42:04.906Z,1007.6
2022-10-04T12:44:04.923Z,1007.6
2022-10-04T12:47:04.931Z,1007.6
2022-10-04T12:49:04.922Z,1007.5
2022-10-04T12:51:04.957Z,1007.5
2022-10-04T12:54:04.914Z,1007.4
2022-10-04T12:57:04.954Z,1007.4
2022-10-04T13:00:05.020Z,1007.4
2022-10-04T13:03:04.956Z,1007.3
2022-10-04T13:05:05.003Z,1007.3
2022-10-04T13:08:04.997Z,1007.4
2022-10-04T13:11:04.968Z,1007.4
2022-10-04T13:14:04.926Z,1007.4
2022-10-04T13:19:09.466Z,1007.3
2022-10-04T13:22:04.970Z,1007.3
2022-10-04T13:24:04.963Z,1007.3
2022-10-04T13:27:05.010Z,1007.2
2022-10-04T13:30:04.935Z,1007.3
2022-10-04T13:32:04.989Z,1007.3
2022-10-04T13:35:05.497Z,1007.3
2022-10-04T13:38:04.951Z,1007.3
2022-10-04T13:41:04.927Z,1007.2
2022-10-04T13:43:04.986Z,1007.2
2022-10-04T13:46:05.022Z,1007.2
2022-10-04T13:49:04.936Z,1007.1
2022-10-04T13:51:04.982Z,1007.1
2022-10-04T13:54:04.926Z,1007.1
2022-10-04T13:56:04.970Z,1007
2022-10-04T13:59:04.992Z,1007
2022-10-04T14:02:04.967Z,1007.1
2022-10-04T14:04:05.040Z,1007
2022-10-04T14:07:05.008Z,1007
2022-10-04T14:10:04.984Z,1007.1
2022-10-04T14:12:05.006Z,1007.1
2022-10-04T14:15:04.981Z,1007
2022-10-04T14:18:04.953Z,1006.9
2022-10-04T14:20:04.957Z,1006.9
2022-10-04T14:22:04.988Z,1006.9
2022-10-04T14:24:04.996Z,1006.8
2022-10-04T14:27:05.031Z,1006.8
2022-10-04T14:30:04.952Z,1006.8
2022-10-04T14:33:04.996Z,1006.8
2022-10-04T14:35:04.986Z,1006.8
2022-10-04T14:37:05.014Z,1006.9
2022-10-04T14:40:04.961Z,1006.9
2022-10-04T14:42:04.990Z,1006.8
2022-10-04T14:45:04.994Z,1006.8
2022-10-04T14:47:05.503Z,1006.8
2022-10-04T14:50:04.977Z,1006.8
2022-10-04T14:53:04.966Z,1006.9
2022-10-04T14:55:05.001Z,1006.8
2022-10-04T14:58:04.954Z,1006.8
2022-10-04T15:01:05.029Z,1006.7
2022-10-04T15:04:04.968Z,1006.7
2022-10-04T15:06:05.136Z,1006.6
2022-10-04T15:09:04.961Z,1006.5
2022-10-04T15:11:04.964Z,1006.6
2022-10-04T15:14:05.139Z,1006.5
2022-10-04T15:17:04.991Z,1006.5
2022-10-04T15:19:05.019Z,1006.5
2022-10-04T15:22:04.973Z,1006.5
2022-10-04T15:25:05.052Z,1006.5
2022-10-04T15:28:05.005Z,1006.5
2022-10-04T15:30:04.991Z,1006.5
2022-10-04T15:33:05.554Z,1006.5
2022-10-04T15:36:04.960Z,1006.5
2022-10-04T15:38:04.964Z,1006.5
2022-10-04T15:41:05.054Z,1006.5
2022-10-04T15:44:04.958Z,1006.4
2022-10-04T15:46:05.061Z,1006.3
2022-10-04T15:49:04.985Z,1006.4
2022-10-04T15:52:04.964Z,1006.4
2022-10-04T15:54:05.003Z,1006.4
2022-10-04T15:57:05.108Z,1006.4
2022-10-04T16:00:04.989Z,1006.4
2022-10-04T16:02:05.059Z,1006.3
2022-10-04T16:05:05.004Z,1006.4
2022-10-04T16:07:05.039Z,1006.4
2022-10-04T16:10:05.020Z,1006.3
2022-10-04T16:13:04.996Z,1006.3
2022-10-04T16:15:05.044Z,1006.3
2022-10-04T16:18:05.009Z,1006.4
2022-10-04T16:21:05.027Z,1006.4
2022-10-04T16:23:05.041Z,1006.4
2022-10-04T16:26:05.007Z,1006.4
2022-10-04T16:29:08.115Z,1006.3
2022-10-04T16:31:05.087Z,1006.3
2022-10-04T16:34:04.990Z,1006.2
2022-10-04T16:37:04.995Z,1006.3
2022-10-04T16:39:05.021Z,1006.3
2022-10-04T16:42:05.064Z,1006.3
2022-10-04T16:45:04.983Z,1006.2
2022-10-04T16:47:05.038Z,1006.1
2022-10-04T16:50:05.063Z,1006.2
2022-10-04T16:53:05.017Z,1006.2
2022-10-04T16:55:05.021Z,1006.3
2022-10-04T16:57:05.056Z,1006.3
2022-10-04T17:00:04.971Z,1006.3
2022-10-04T17:02:05.020Z,1006.3
2022-10-04T17:05:04.996Z,1006.3
2022-10-04T17:07:05.015Z,1006.3
2022-10-04T17:10:05.022Z,1006.4
2022-10-04T17:13:05.028Z,1006.5
2022-10-04T17:16:05.028Z,1006.4
2022-10-04T17:18:05.027Z,1006.4
2022-10-04T17:21:05.001Z,1006.4
2022-10-04T17:23:05.018Z,1006.4
2022-10-04T17:26:05.630Z,1006.5
2022-10-04T17:29:05.003Z,1006.5
2022-10-04T17:32:04.994Z,1006.5
2022-10-04T17:34:05.012Z,1006.5
2022-10-04T17:37:05.024Z,1006.5
2022-10-04T17:40:08.636Z,1006.6
2022-10-04T17:42:06.931Z,1006.6
2022-10-04T17:45:05.025Z,1006.6
2022-10-04T17:48:05.008Z,1006.6
2022-10-04T17:50:05.047Z,1006.6
2022-10-04T17:53:05.402Z,1006.7
2022-10-04T17:56:05.019Z,1006.7
2022-10-04T17:58:05.025Z,1006.6
2022-10-04T18:01:05.019Z,1006.6
2022-10-04T18:04:05.030Z,1006.6
2022-10-04T18:07:05.076Z,1006.5
2022-10-04T18:10:05.026Z,1006.5
2022-10-04T18:12:05.018Z,1006.6
2022-10-04T18:14:05.022Z,1006.6
2022-10-04T18:17:05.007Z,1006.5
2022-10-04T18:20:05.013Z,1006.6
2022-10-04T18:22:05.022Z,1006.6
2022-10-04T18:25:04.994Z,1006.6
2022-10-04T18:27:05.057Z,1006.7
2022-10-04T18:29:05.021Z,1006.7
2022-10-04T18:32:05.018Z,1006.7
2022-10-04T18:34:05.013Z,1006.7
2022-10-04T18:36:05.016Z,1006.7
2022-10-04T18:38:05.067Z,1006.6
2022-10-04T18:41:05.542Z,1006.6
2022-10-04T18:44:04.995Z,1006.6
2022-10-04T18:47:05.086Z,1006.6
2022-10-04T18:49:05.043Z,1006.6
2022-10-04T18:52:05.038Z,1006.6
2022-10-04T18:55:05.074Z,1006.6
2022-10-04T18:58:05.051Z,1006.6
2022-10-04T19:01:05.111Z,1006.6
2022-10-04T19:03:05.085Z,1006.6
2022-10-04T19:06:05.033Z,1006.7
2022-10-04T19:08:05.028Z,1006.6
2022-10-04T19:10:05.056Z,1006.7
2022-10-04T19:13:05.076Z,1006.8
2022-10-04T19:16:05.065Z,1006.8
2022-10-04T19:18:05.061Z,1006.8
2022-10-04T19:20:05.049Z,1006.8
2022-10-04T19:23:05.076Z,1006.9
2022-10-04T19:25:05.180Z,1006.8
2022-10-04T19:28:05.107Z,1006.8
2022-10-04T19:30:05.063Z,1006.9
2022-10-04T19:33:05.061Z,1007
2022-10-04T19:36:05.023Z,1007
2022-10-04T19:38:05.043Z,1006.9
2022-10-04T19:40:05.060Z,1006.9
2022-10-04T19:43:05.036Z,1006.9
2022-10-04T19:46:05.106Z,1006.9
2022-10-04T19:49:05.015Z,1006.9
2022-10-04T19:52:05.023Z,1007
2022-10-04T19:54:05.075Z,1007.1
2022-10-04T19:57:05.030Z,1007
2022-10-04T20:00:05.020Z,1007
2022-10-04T20:02:05.610Z,1007
2022-10-04T20:05:05.009Z,1007.1
2022-10-04T20:07:05.033Z,1007.1
2022-10-04T20:10:05.055Z,1007.2
2022-10-04T20:12:05.065Z,1007.2
2022-10-04T20:15:05.007Z,1007.2
2022-10-04T20:17:05.113Z,1007.2
2022-10-04T20:20:05.067Z,1007.1
2022-10-04T20:22:05.078Z,1007.1
2022-10-04T20:25:05.024Z,1007.2
2022-10-04T20:28:05.054Z,1007.2
2022-10-04T20:30:05.083Z,1007.2
2022-10-04T20:33:05.097Z,1007.2
2022-10-04T20:36:05.082Z,1007.2
2022-10-04T20:38:27.636Z,1007.2
2022-10-04T20:41:05.060Z,1007.2
2022-10-04T20:43:08.214Z,1007.2
2022-10-04T20:45:05.107Z,1007.3
2022-10-04T20:48:05.138Z,1007.3
2022-10-04T20:51:05.048Z,1007.3
2022-10-04T20:53:05.054Z,1007.3
2022-10-04T20:55:05.099Z,1007.3
2022-10-04T20:58:05.056Z,1007.3
2022-10-04T21:00:05.011Z,1007.4
2022-10-04T21:03:05.268Z,1007.4
2022-10-04T21:05:05.076Z,1007.4
2022-10-04T21:07:05.082Z,1007.4
2022-10-04T21:10:05.022Z,1007.5
2022-10-04T21:12:05.073Z,1007.5
2022-10-04T21:15:05.096Z,1007.5
2022-10-04T21:17:05.106Z,1007.5
2022-10-04T21:20:05.017Z,1007.5
2022-10-04T21:22:05.076Z,1007.5
2022-10-04T21:24:05.057Z,1007.5
2022-10-04T21:27:05.037Z,1007.5
2022-10-04T21:29:05.053Z,1007.4
2022-10-04T21:32:05.215Z,1007.4
2022-10-04T21:35:05.067Z,1007.4
2022-10-04T21:37:05.111Z,1007.4
2022-10-04T21:40:05.056Z,1007.3
2022-10-04T21:43:05.025Z,1007.3
2022-10-04T21:45:05.073Z,1007.2
2022-10-04T21:48:05.116Z,1007.2
2022-10-04T21:51:05.066Z,1007.2
2022-10-04T21:53:05.044Z,1007.2
2022-10-04T21:55:05.078Z,1007.2
2022-10-04T21:57:05.170Z,1007.2
2022-10-04T22:00:05.059Z,1007.2
2022-10-04T22:03:05.075Z,1007.1
2022-10-04T22:05:05.035Z,1007.1
2022-10-04T22:07:05.109Z,1007.2
2022-10-04T22:09:05.034Z,1007.1
2022-10-04T22:12:05.062Z,1007.1
2022-10-04T22:15:05.047Z,1007.1
2022-10-04T22:17:05.140Z,1007
2022-10-04T22:21:05.096Z,1007.1
2022-10-04T22:24:05.063Z,1007.1
2022-10-04T22:26:05.104Z,1007.1
2022-10-04T22:29:05.044Z,1007.1
2022-10-04T22:31:05.081Z,1007.1
2022-10-04T22:33:05.108Z,1007.1
2022-10-04T22:36:05.058Z,1007.1
2022-10-04T22:39:05.060Z,1007.1
2022-10-04T22:42:05.076Z,1007.1
2022-10-04T22:44:05.085Z,1007.1
2022-10-04T22:47:05.051Z,1007
2022-10-04T22:49:05.283Z,1007.1
2022-10-04T22:52:05.077Z,1007.1
2022-10-04T22:55:05.083Z,1007
2022-10-04T22:57:05.085Z,1006.9
2022-10-04T23:00:05.079Z,1006.9
2022-10-04T23:03:05.136Z,1006.9
2022-10-04T23:06:05.074Z,1006.9
2022-10-04T23:08:05.093Z,1006.9
2022-10-04T23:10:05.079Z,1006.8
2022-10-04T23:13:05.401Z,1006.8
2022-10-04T23:16:05.235Z,1006.8
2022-10-04T23:19:05.062Z,1006.9
2022-10-04T23:21:05.129Z,1006.9
2022-10-04T23:24:05.069Z,1006.8
2022-10-04T23:26:05.105Z,1006.8
2022-10-04T23:28:05.125Z,1006.8
2022-10-04T23:31:05.075Z,1006.7
2022-10-04T23:33:05.096Z,1006.7
2022-10-04T23:36:05.072Z,1006.8
2022-10-04T23:38:05.057Z,1006.7
2022-10-04T23:40:05.051Z,1006.7
2022-10-04T23:42:05.141Z,1006.7
2022-10-04T23:45:05.103Z,1006.7
2022-10-04T23:48:05.074Z,1006.7
2022-10-04T23:51:05.051Z,1006.7
2022-10-04T23:54:05.051Z,1006.7
2022-10-04T23:56:05.090Z,1006.8
2022-10-04T23:59:05.088Z,1006.8
